Time;durP1;ratioP1;P1;durP2;ratioP2;P2;SDS_P1;SDS_P2;PMS_P1;PMS_P2;Temp;Humidity;BMP_temperature;BMP_pressure;BME280_temperature;BME280_humidity;BME280_pressure;Samples;Min_cycle;Max_cycle;Signal;HPM_P1;HPM_P2
2023/01/23 00:00:58;;;;;;;16.02;7.78;;;;;;;;;;5045993;28;20474;-85
2023/01/23 00:03:24;;;;;;;12.93;6.63;;;;;;;;;;5040507;28;20041;-85
2023/01/23 00:06:04;;;;;;;15.07;6.13;;;2.90;99.90;;;;;;5045344;28;20052;-85
2023/01/23 00:08:31;;;;;;;13.95;6.82;;;;;;;;;;5044954;28;20123;-85
2023/01/23 00:10:57;;;;;;;12.55;6.68;;;;;;;;;;5044964;28;20045;-85
2023/01/23 00:13:23;;;;;;;13.23;6.75;;;;;;;;;;5038658;28;20045;-85
2023/01/23 00:15:49;;;;;;;13.55;6.75;;;;;;;;;;5037514;28;20080;-85
2023/01/23 00:18:16;;;;;;;16.92;6.35;;;;;;;;;;5045000;28;20048;-85
2023/01/23 00:20:42;;;;;;;12.30;6.28;;;;;;;;;;5044948;28;20395;-85
2023/01/23 00:23:08;;;;;;;11.38;6.05;;;;;;;;;;5044762;28;20430;-85
2023/01/23 00:25:34;;;;;;;10.07;5.75;;;;;;;;;;5044935;28;20143;-85
2023/01/23 00:28:00;;;;;;;12.18;5.55;;;;;;;;;;5045402;28;20524;-85
2023/01/23 00:30:26;;;;;;;11.73;6.15;;;;;;;;;;5028439;28;20131;-85
2023/01/23 00:32:52;;;;;;;12.95;6.85;;;;;;;;;;5044743;28;20614;-85
2023/01/23 00:35:18;;;;;;;11.80;6.45;;;;;;;;;;5030677;28;20045;-85
2023/01/23 00:37:44;;;;;;;12.00;7.03;;;;;;;;;;5044462;28;20574;-85
2023/01/23 00:40:12;;;;;;;10.63;6.68;;;;;;;;;;5044476;28;20051;-85
2023/01/23 00:42:38;;;;;;;12.27;6.75;;;;;;;;;;5045006;28;20470;-85
2023/01/23 00:45:04;;;;;;;11.35;6.55;;;;;;;;;;5044027;28;20470;-85
2023/01/23 00:47:30;;;;;;;14.85;7.32;;;;;;;;;;5044170;28;20112;-84
2023/01/23 00:49:57;;;;;;;13.38;7.70;;;;;;;;;;5027670;28;20060;-85
2023/01/23 00:52:24;;;;;;;15.00;7.25;;;;;;;;;;5043850;28;20051;-85
2023/01/23 00:54:50;;;;;;;13.32;6.60;;;;;;;;;;5027639;28;20095;-85
2023/01/23 00:57:16;;;;;;;16.70;7.13;;;;;;;;;;5044104;28;20044;-85
2023/01/23 00:59:42;;;;;;;17.77;8.40;;;;;;;;;;5044247;28;20040;-85
2023/01/23 01:02:08;;;;;;;10.95;6.03;;;;;;;;;;5043881;28;20055;-84
2023/01/23 01:04:34;;;;;;;14.43;6.78;;;;;;;;;;5026644;28;20617;-84
2023/01/23 01:07:00;;;;;;;15.52;7.93;;;;;;;;;;5043705;28;20051;-85
2023/01/23 01:09:26;;;;;;;12.38;7.25;;;;;;;;;;5043911;28;20049;-85
2023/01/23 01:11:52;;;;;;;12.18;7.07;;;;;;;;;;5043777;28;20043;-85
2023/01/23 01:14:18;;;;;;;11.82;7.50;;;;;;;;;;5043889;28;20040;-85
2023/01/23 01:16:45;;;;;;;17.23;7.65;;;;;;;;;;5043906;28;20084;-85
2023/01/23 01:19:12;;;;;;;16.75;7.78;;;;;;;;;;5043596;28;20168;-85
2023/01/23 01:21:39;;;;;;;13.48;7.10;;;;;;;;;;5042707;28;20056;-85
2023/01/23 01:24:05;;;;;;;12.55;7.35;;;;;;;;;;5043944;28;20174;-85
2023/01/23 01:26:31;;;;;;;13.18;7.85;;;;;;;;;;5043775;28;20526;-85
2023/01/23 01:28:57;;;;;;;23.73;7.38;;;;;;;;;;5043581;28;20151;-85
2023/01/23 01:31:23;;;;;;;16.20;6.85;;;;;;;;;;5043177;28;20133;-84
2023/01/23 01:33:49;;;;;;;15.00;7.43;;;;;;;;;;5043263;28;20041;-85
2023/01/23 01:36:16;;;;;;;11.27;7.70;;;;;;;;;;5027235;28;20091;-85
2023/01/23 01:38:43;;;;;;;19.60;8.25;;;;;;;;;;5027000;28;20036;-85
2023/01/23 01:41:09;;;;;;;17.05;7.50;;;;;;;;;;5043979;28;20117;-85
2023/01/23 01:43:35;;;;;;;17.85;8.45;;;;;;;;;;5026920;28;20555;-85
2023/01/23 01:46:10;;;;;;;15.65;8.15;;;;;;;;;;5043549;28;20056;-85
2023/01/23 01:48:36;;;;;;;;;;;;;;;;;;5043929;28;20052;-85
2023/01/23 01:51:05;;;;;;;19.00;8.02;;;;;;;;;;5043591;28;19925;-85
2023/01/23 01:53:32;;;;;;;18.17;7.65;;;2.80;99.90;;;;;;5043361;28;20110;-85
2023/01/23 01:55:58;;;;;;;13.80;7.38;;;;;;;;;;5020349;28;20047;-85
2023/01/23 01:58:24;;;;;;;15.60;8.95;;;;;;;;;;5036954;28;20128;-85
2023/01/23 02:00:50;;;;;;;15.60;8.00;;;;;;;;;;5026525;28;20045;-85
2023/01/23 02:03:18;;;;;;;15.55;8.55;;;;;;;;;;5043493;28;20050;-85
2023/01/23 02:05:45;;;;;;;13.55;6.63;;;;;;;;;;5043366;28;20132;-84
2023/01/23 02:08:14;;;;;;;15.60;8.32;;;;;;;;;;5040853;28;20048;-85
2023/01/23 02:10:41;;;;;;;12.50;8.20;;;;;;;;;;5043431;28;20495;-85
2023/01/23 02:13:20;;;;;;;18.05;8.50;;;;;;;;;;5012705;28;20080;-86
2023/01/23 02:15:46;;;;;;;16.13;8.27;;;;;;;;;;5028517;28;20045;-85
2023/01/23 02:18:12;;;;;;;14.15;8.15;;;;;;;;;;5040127;28;20049;-85
2023/01/23 02:20:38;;;;;;;12.93;7.90;;;;;;;;;;5036650;28;20045;-85
2023/01/23 02:23:13;;;;;;;17.23;8.20;;;;;;;;;;5038667;28;20045;-85
2023/01/23 02:25:43;;;;;;;13.90;7.63;;;;;;;;;;5032961;28;20071;-85
2023/01/23 02:28:13;;;;;;;16.45;7.57;;;;;;;;;;5008206;28;20145;-85
2023/01/23 02:30:41;;;;;;;16.25;7.70;;;;;;;;;;5034194;28;20383;-85
2023/01/23 02:33:19;;;;;;;18.80;8.00;;;;;;;;;;5034520;28;20077;-85
2023/01/23 02:35:45;;;;;;;13.82;7.20;;;;;;;;;;5034228;28;20462;-85
2023/01/23 02:38:11;;;;;;;17.58;9.25;;;;;;;;;;5034722;28;20064;-85
2023/01/23 02:40:39;;;;;;;20.00;9.05;;;;;;;;;;5046036;28;20045;-85
2023/01/23 02:43:06;;;;;;;14.10;8.32;;;;;;;;;;5047158;28;20049;-85
2023/01/23 02:45:33;;;;;;;19.52;8.40;;;;;;;;;;5047027;28;20053;-85
2023/01/23 02:48:00;;;;;;;17.40;9.25;;;;;;;;;;5038337;28;20057;-85
2023/01/23 02:50:26;;;;;;;16.02;8.07;;;;;;;;;;5026090;28;20466;-85
2023/01/23 02:52:53;;;;;;;17.98;8.10;;;;;;;;;;5047175;28;20033;-85
2023/01/23 02:55:20;;;;;;;14.90;8.27;;;;;;;;;;5046836;28;20053;-84
2023/01/23 02:57:46;;;;;;;15.75;8.52;;;;;;;;;;5033211;28;20616;-85
2023/01/23 03:00:15;;;;;;;11.45;7.93;;;;;;;;;;5047416;28;20052;-85
2023/01/23 03:02:41;;;;;;;12.38;7.97;;;;;;;;;;5032958;28;20041;-85
2023/01/23 03:05:07;;;;;;;19.40;8.95;;;;;;;;;;5037337;28;20049;-85
2023/01/23 03:07:34;;;;;;;14.18;8.13;;;;;;;;;;5043302;28;20290;-85
2023/01/23 03:10:00;;;;;;;16.52;8.40;;;;;;;;;;5047194;28;20547;-85
2023/01/23 03:12:26;;;;;;;16.38;9.55;;;;;;;;;;5047503;28;20132;-85
2023/01/23 03:14:53;;;;;;;16.83;9.10;;;;;;;;;;5033472;28;20042;-85
2023/01/23 03:17:20;;;;;;;16.55;8.38;;;;;;;;;;5047501;28;20072;-85
2023/01/23 03:19:46;;;;;;;16.95;8.57;;;;;;;;;;5033091;28;20036;-85
2023/01/23 03:22:12;;;;;;;16.10;8.07;;;;;;;;;;5020141;28;20056;-85
2023/01/23 03:24:38;;;;;;;14.05;8.48;;;;;;;;;;5030000;28;20048;-85
2023/01/23 03:27:04;;;;;;;20.73;10.57;;;;;;;;;;5028221;28;20542;-85
2023/01/23 03:32:14;;;;;;;14.02;8.63;;;;;;;;;;5034484;28;20045;-85
2023/01/23 03:34:40;;;;;;;17.65;9.38;;;;;;;;;;5046145;28;20041;-85
2023/01/23 03:37:07;;;;;;;18.10;8.70;;;;;;;;;;5029866;28;20040;-85
2023/01/23 03:42:19;;;;;;;13.65;8.82;;;;;;;;;;5046289;28;20044;-85
2023/01/23 03:44:45;;;;;;;18.35;8.70;;;;;;;;;;5016572;28;20135;-85
2023/01/23 03:47:11;;;;;;;17.52;9.68;;;;;;;;;;5026028;28;20108;-85
2023/01/23 03:49:37;;;;;;;14.30;8.27;;;;;;;;;;5009755;28;20164;-85
2023/01/23 03:52:03;;;;;;;18.50;9.30;;;;;;;;;;5029290;28;20536;-85
2023/01/23 03:54:29;;;;;;;15.13;8.25;;;;;;;;;;5045960;28;20048;-85
2023/01/23 03:56:55;;;;;;;17.70;8.88;;;;;;;;;;5029649;28;20044;-85
2023/01/23 03:59:21;;;;;;;13.05;8.18;;;;;;;;;;5038995;28;20128;-85
2023/01/23 04:01:47;;;;;;;16.85;8.73;;;;;;;;;;5039159;28;20578;-85
2023/01/23 04:04:14;;;;;;;17.15;10.13;;;;;;;;;;5040396;28;20045;-85
2023/01/23 04:06:40;;;;;;;15.20;8.85;;;;;;;;;;5026296;28;20049;-84
2023/01/23 04:09:06;;;;;;;19.05;8.82;;;;;;;;;;5029570;28;20053;-86
2023/01/23 04:11:31;;;;;;;16.50;8.73;;;;;;;;;;5036384;28;20046;-85
2023/01/23 04:13:58;;;;;;;19.42;9.60;;;;;;;;;;5039545;28;20056;-85
2023/01/23 04:16:24;;;;;;;15.52;9.00;;;;;;;;;;5033453;28;20064;-85
2023/01/23 04:18:50;;;;;;;15.85;9.85;;;;;;;;;;5029061;28;20068;-85
2023/01/23 04:21:16;;;;;;;16.80;8.68;;;;;;;;;;5041968;28;20269;-85
2023/01/23 04:23:42;;;;;;;20.23;9.43;;;;;;;;;;5045231;28;20055;-85
2023/01/23 04:26:08;;;;;;;17.17;9.40;;;;;;;;;;5027552;28;20590;-85
2023/01/23 04:28:34;;;;;;;15.63;9.10;;;;;;;;;;5028404;28;20052;-85
2023/01/23 04:31:00;;;;;;;26.17;10.30;;;;;;;;;;5033326;28;20572;-85
2023/01/23 04:33:26;;;;;;;17.83;9.38;;;;;;;;;;5028788;28;20060;-84
2023/01/23 04:35:58;;;;;;;17.05;9.75;;;2.90;99.90;;;;;;5028817;28;20147;-85
2023/01/23 04:38:25;;;;;;;20.52;9.50;;;3.00;99.90;;;;;;5045162;28;20450;-85
2023/01/23 04:40:51;;;;;;;16.50;8.80;;;;;;;;;;5036641;28;20495;-85
2023/01/23 04:43:17;;;;;;;21.35;10.15;;;;;;;;;;5039497;28;20052;-85
2023/01/23 04:45:43;;;;;;;18.73;9.90;;;;;;;;;;5044370;28;20092;-85
2023/01/23 04:48:10;;;;;;;21.55;11.18;;;3.00;99.90;;;;;;5045009;28;20468;-85
2023/01/23 04:50:36;;;;;;;18.90;10.07;;;;;;;;;;5044553;28;20125;-85
2023/01/23 04:53:03;;;;;;;13.40;8.90;;;;;;;;;;5044557;28;20036;-85
2023/01/23 04:55:29;;;;;;;16.38;9.18;;;;;;;;;;5044364;28;20083;-85
2023/01/23 04:57:55;;;;;;;17.63;10.68;;;;;;;;;;5044511;28;20033;-85
2023/01/23 05:00:21;;;;;;;24.92;10.43;;;;;;;;;;5042787;28;20494;-85
2023/01/23 05:02:48;;;;;;;23.67;10.20;;;;;;;;;;5024382;28;20479;-85
2023/01/23 05:05:16;;;;;;;17.30;10.18;;;;;;;;;;5021536;28;20048;-85
2023/01/23 05:07:42;;;;;;;20.55;10.27;;;;;;;;;;5027667;28;20040;-85
2023/01/23 05:10:08;;;;;;;18.05;10.23;;;;;;;;;;5032393;28;20045;-85
2023/01/23 05:12:34;;;;;;;21.17;10.18;;;;;;;;;;5042182;28;20403;-85
2023/01/23 05:15:00;;;;;;;16.58;10.50;;;;;;;;;;5043740;28;20041;-85
2023/01/23 05:17:26;;;;;;;18.63;10.32;;;;;;;;;;5027834;28;20067;-85
2023/01/23 05:19:52;;;;;;;17.63;11.25;;;;;;;;;;5029116;28;20043;-85
2023/01/23 05:22:18;;;;;;;17.67;11.15;;;;;;;;;;5013768;28;20519;-85
2023/01/23 05:24:45;;;;;;;17.92;9.63;;;;;;;;;;5030311;28;20103;-85
2023/01/23 05:27:11;;;;;;;21.50;11.60;;;;;;;;;;5039908;28;20403;-85
2023/01/23 05:29:37;;;;;;;18.10;10.13;;;;;;;;;;5029620;28;20601;-85
2023/01/23 05:32:03;;;;;;;20.67;9.98;;;;;;;;;;5043634;28;20149;-85
2023/01/23 05:34:29;;;;;;;18.67;10.65;;;;;;;;;;5027321;28;20534;-85
2023/01/23 05:36:55;;;;;;;20.52;10.25;;;;;;;;;;5030031;28;20051;-85
2023/01/23 05:39:21;;;;;;;20.73;11.20;;;;;;;;;;5016906;28;20069;-85
2023/01/23 05:41:47;;;;;;;24.30;12.02;;;;;;;;;;5026215;28;20518;-85
2023/01/23 05:44:13;;;;;;;17.95;11.10;;;;;;;;;;5035229;28;20037;-85
2023/01/23 05:46:40;;;;;;;24.83;12.10;;;;;;;;;;5038322;28;20062;-85
2023/01/23 05:49:05;;;;;;;22.55;10.90;;;;;;;;;;5043936;28;20433;-85
2023/01/23 05:51:32;;;;;;;20.33;10.98;;;;;;;;;;5026705;28;20045;-85
2023/01/23 05:53:59;;;;;;;18.77;11.13;;;;;;;;;;5043559;28;20072;-85
2023/01/23 05:56:25;;;;;;;20.67;11.35;;;;;;;;;;5027253;28;20045;-85
2023/01/23 05:58:51;;;;;;;24.02;12.00;;;;;;;;;;5043913;28;20041;-85
2023/01/23 06:01:17;;;;;;;19.75;11.45;;;;;;;;;;5027519;28;20087;-85
2023/01/23 06:03:43;;;;;;;21.88;11.48;;;;;;;;;;5029784;28;20073;-85
2023/01/23 06:06:09;;;;;;;22.33;11.23;;;;;;;;;;5044372;28;20071;-85
2023/01/23 06:08:35;;;;;;;18.90;10.68;;;;;;;;;;5030416;28;20053;-85
2023/01/23 06:11:01;;;;;;;20.42;11.68;;;;;;;;;;5023602;28;20549;-85
2023/01/23 06:13:27;;;;;;;21.05;12.48;;;;;;;;;;5018285;28;20041;-85
2023/01/23 06:15:53;;;;;;;22.73;12.70;;;;;;;;;;5029391;28;20123;-85
2023/01/23 06:18:19;;;;;;;20.17;11.13;;;;;;;;;;5043533;28;20036;-85
2023/01/23 06:20:46;;;;;;;22.40;11.52;;;;;;;;;;5040322;28;20126;-85
2023/01/23 06:23:12;;;;;;;19.27;11.30;;;;;;;;;;5042907;28;20048;-85
2023/01/23 06:25:38;;;;;;;18.80;11.30;;;;;;;;;;5043147;28;20052;-84
2023/01/23 06:28:05;;;;;;;18.02;11.18;;;;;;;;;;5037377;28;20041;-85
2023/01/23 06:30:31;;;;;;;23.85;11.50;;;;;;;;;;5014551;28;20083;-85
2023/01/23 06:32:57;;;;;;;21.10;11.40;;;;;;;;;;5012966;28;20080;-85
2023/01/23 06:35:22;;;;;;;22.92;12.07;;;;;;;;;;5028880;28;20037;-85
2023/01/23 06:37:48;;;;;;;22.85;11.80;;;;;;;;;;5015150;28;20049;-85
2023/01/23 06:40:14;;;;;;;15.93;10.93;;;;;;;;;;5040915;28;20090;-85
2023/01/23 06:42:41;;;;;;;21.48;12.88;;;;;;;;;;5033468;28;20045;-85
2023/01/23 06:45:09;;;;;;;20.98;12.30;;;;;;;;;;5020375;28;20464;-85
2023/01/23 06:47:35;;;;;;;24.38;12.65;;;;;;;;;;5023056;28;20096;-85
2023/01/23 06:50:01;;;;;;;21.02;12.57;;;;;;;;;;5023699;28;20470;-85
2023/01/23 06:52:27;;;;;;;23.02;12.93;;;;;;;;;;5020030;28;20037;-85
2023/01/23 06:54:53;;;;;;;23.90;12.48;;;;;;;;;;5035451;28;20037;-85
2023/01/23 06:57:19;;;;;;;23.48;12.95;;;;;;;;;;5026457;28;20422;-85
2023/01/23 06:59:45;;;;;;;20.23;12.73;;;;;;;;;;5043230;28;20095;-85
2023/01/23 07:02:11;;;;;;;21.17;12.60;;;;;;;;;;5044721;28;20044;-86
2023/01/23 07:04:37;;;;;;;23.58;12.25;;;;;;;;;;5046340;28;20044;-85
2023/01/23 07:07:04;;;;;;;24.45;12.73;;;;;;;;;;5029635;28;20037;-85
2023/01/23 07:09:30;;;;;;;24.55;12.43;;;;;;;;;;5046647;28;20041;-85
2023/01/23 07:11:56;;;;;;;21.05;12.63;;;;;;;;;;5033574;28;20053;-85
2023/01/23 07:14:22;;;;;;;21.73;12.05;;;;;;;;;;5045110;28;20068;-85
2023/01/23 07:16:48;;;;;;;21.58;12.23;;;;;;;;;;5030162;28;20921;-85
2023/01/23 07:19:14;;;;;;;21.95;11.48;;;;;;;;;;5046324;28;20063;-85
2023/01/23 07:21:40;;;;;;;23.27;11.75;;;;;;;;;;5035491;28;20076;-85
2023/01/23 07:24:06;;;;;;;24.13;12.50;;;;;;;;;;5027671;28;20521;-86
2023/01/23 07:26:32;;;;;;;21.65;11.80;;;;;;;;;;5029391;28;20075;-86
2023/01/23 07:28:59;;;;;;;22.67;11.85;;;;;;;;;;5046105;28;20037;-85
2023/01/23 07:31:25;;;;;;;22.25;13.20;;;;;;;;;;5029215;28;20048;-86
2023/01/23 07:33:51;;;;;;;23.70;13.40;;;;;;;;;;5046048;28;20044;-86
2023/01/23 07:36:17;;;;;;;22.10;12.20;;;;;;;;;;5046384;28;20076;-87
2023/01/23 07:38:43;;;;;;;21.13;12.23;;;;;;;;;;5030045;28;20530;-87
2023/01/23 07:43:43;;;;;;;24.35;13.15;;;;;;;;;;5033731;28;20047;-65
2023/01/23 07:46:09;;;;;;;25.45;12.00;;;;;;;;;;5049121;28;20056;-65
2023/01/23 07:48:36;;;;;;;21.80;12.95;;;2.90;99.90;;;;;;5067101;28;20113;-65
2023/01/23 07:51:03;;;;;;;20.05;11.32;;;2.70;99.90;;;;;;5047646;28;20474;-65
2023/01/23 07:53:29;;;;;;;21.42;12.68;;;;;;;;;;5055188;28;20591;-65
2023/01/23 07:55:55;;;;;;;22.15;12.02;;;;;;;;;;5074683;28;20040;-65
2023/01/23 07:58:20;;;;;;;20.75;12.40;;;2.70;99.90;;;;;;5072207;28;20043;-65
2023/01/23 08:00:46;;;;;;;22.35;11.88;;;2.70;99.90;;;;;;5066389;28;20068;-65
2023/01/23 08:03:12;;;;;;;22.80;12.10;;;;;;;;;;5069782;28;20040;-65
2023/01/23 08:05:38;;;;;;;19.10;11.75;;;;;;;;;;5076146;28;20054;-65
2023/01/23 08:08:04;;;;;;;17.58;11.63;;;;;;;;;;5071782;28;20418;-64
2023/01/23 08:10:30;;;;;;;22.40;12.60;;;;;;;;;;5071516;28;20036;-65
2023/01/23 08:12:55;;;;;;;21.60;11.95;;;2.70;99.90;;;;;;5071193;28;20058;-65
2023/01/23 08:15:21;;;;;;;21.75;12.63;;;2.80;99.90;;;;;;5089887;28;20085;-65
2023/01/23 08:17:46;;;;;;;24.42;12.20;;;2.90;99.90;;;;;;5089739;28;20040;-67
2023/01/23 08:20:13;;;;;;;22.15;11.75;;;;;;;;;;5067683;28;20094;-68
2023/01/23 08:22:39;;;;;;;23.10;11.98;;;;;;;;;;5045130;28;20052;-67
2023/01/23 08:25:09;;;;;;;21.35;12.07;;;2.50;99.90;;;;;;5049086;28;20506;-68
2023/01/23 08:27:35;;;;;;;24.40;11.32;;;;;;;;;;5069044;28;20078;-68
2023/01/23 08:30:01;;;;;;;20.30;11.98;;;2.90;99.90;;;;;;5052697;28;20032;-67
2023/01/23 08:32:27;;;;;;;20.90;11.63;;;;;;;;;;5062813;28;20558;-67
2023/01/23 08:34:54;;;;;;;20.15;11.30;;;2.90;99.90;;;;;;5067407;28;20074;-67
2023/01/23 08:37:20;;;;;;;22.55;13.02;;;;;;;;;;5067692;28;20043;-68
2023/01/23 08:39:46;;;;;;;21.35;12.40;;;2.90;99.90;;;;;;5049764;28;20036;-67
2023/01/23 08:42:11;;;;;;;18.75;11.93;;;3.00;99.90;;;;;;5050246;28;20444;-67
2023/01/23 08:44:38;;;;;;;19.67;11.07;;;;;;;;;;5044027;28;20494;-67
2023/01/23 08:47:04;;;;;;;21.27;12.35;;;;;;;;;;5050883;28;20047;-68
2023/01/23 08:49:30;;;;;;;20.27;11.50;;;;;;;;;;5042875;28;20080;-67
2023/01/23 08:51:57;;;;;;;21.95;11.80;;;;;;;;;;5050884;28;20083;-68
2023/01/23 08:54:23;;;;;;;19.05;11.05;;;;;;;;;;5068498;28;20052;-68
2023/01/23 08:56:49;;;;;;;20.25;11.68;;;3.00;99.90;;;;;;5068837;28;20421;-68
2023/01/23 08:59:15;;;;;;;24.60;12.20;;;;;;;;;;5068555;28;20067;-67
2023/01/23 09:01:41;;;;;;;19.70;11.15;;;;;;;;;;5068314;28;20044;-68
2023/01/23 09:04:07;;;;;;;17.38;11.73;;;;;;;;;;5061523;28;20067;-63
2023/01/23 09:06:33;;;;;;;21.05;11.70;;;;;;;;;;5066965;28;20581;-63
2023/01/23 09:08:58;;;;;;;19.60;11.10;;;3.10;99.90;;;;;;5049969;28;20126;-63
2023/01/23 09:11:24;;;;;;;22.60;12.45;;;;;;;;;;5068092;28;20028;-63
2023/01/23 09:13:50;;;;;;;19.70;11.32;;;;;;;;;;5062649;28;20045;-63
2023/01/23 09:16:16;;;;;;;19.40;10.57;;;;;;;;;;5048727;28;20075;-63
2023/01/23 09:18:42;;;;;;;19.85;11.60;;;3.20;99.90;;;;;;5066759;28;20056;-63
2023/01/23 09:21:14;;;;;;;16.67;11.05;;;3.20;99.90;;;;;;5049454;28;20131;-63
2023/01/23 09:23:40;;;;;;;17.20;10.75;;;;;;;;;;5049864;28;20078;-63
2023/01/23 09:26:08;;;;;;;19.80;11.00;;;3.00;99.90;;;;;;5049072;28;20412;-63
2023/01/23 09:28:40;;;;;;;19.27;11.68;;;3.30;99.90;;;;;;5050527;28;20094;-63
2023/01/23 09:31:08;;;;;;;19.63;11.38;;;3.30;99.90;;;;;;5067959;28;20040;-63
2023/01/23 09:33:34;;;;;;;19.60;10.82;;;;;;;;;;5068081;28;20106;-63
2023/01/23 09:36:00;;;;;;;18.80;11.60;;;;;;;;;;5067788;28;20055;-63
2023/01/23 09:38:26;;;;;;;18.95;9.90;;;;;;;;;;5050082;28;20041;-63
2023/01/23 09:40:57;;;;;;;16.25;10.10;;;;;;;;;;5068045;28;20048;-63
2023/01/23 09:43:26;;;;;;;15.57;9.88;;;;;;;;;;5067622;28;20044;-63
2023/01/23 09:46:03;;;;;;;18.42;10.82;;;;;;;;;;5068117;28;20048;-62
2023/01/23 09:48:33;;;;;;;19.45;11.05;;;;;;;;;;5068160;28;20032;-63
2023/01/23 09:51:01;;;;;;;17.42;10.63;;;;;;;;;;5066475;28;20097;-63
2023/01/23 09:53:37;;;;;;;16.40;10.35;;;3.60;99.90;;;;;;5067609;28;20066;-63
2023/01/23 09:56:26;;;;;;;15.75;9.65;;;;;;;;;;5048231;28;20453;-63
2023/01/23 09:58:52;;;;;;;13.48;9.25;;;;;;;;;;5067233;28;20032;-63
2023/01/23 10:01:18;;;;;;;18.02;8.90;;;3.40;99.90;;;;;;5048761;28;20036;-63
2023/01/23 10:03:44;;;;;;;19.30;9.60;;;;;;;;;;5067433;28;20779;-63
2023/01/23 10:06:22;;;;;;;16.95;9.15;;;3.40;99.90;;;;;;5067715;28;20044;-63
2023/01/23 10:09:08;;;;;;;16.15;8.70;;;;;;;;;;5064343;28;20040;-63
2023/01/23 10:11:36;;;;;;;15.68;8.30;;;;;;;;;;5059204;28;20394;-63
2023/01/23 10:14:28;;;;;;;17.88;9.40;;;3.60;99.90;;;;;;5057313;28;20399;-63
2023/01/23 10:17:09;;;;;;;11.07;8.48;;;3.60;99.90;;;;;;5048444;28;20040;-63
2023/01/23 10:19:50;;;;;;;10.38;7.60;;;;;;;;;;5059007;28;20040;-63
2023/01/23 10:22:28;;;;;;;12.98;7.43;;;3.60;99.90;;;;;;5046116;28;20124;-63
2023/01/23 10:24:56;;;;;;;13.77;8.05;;;3.60;99.90;;;;;;5058484;28;20491;-63
2023/01/23 10:27:24;;;;;;;15.27;7.68;;;;;;;;;;5048325;28;20142;-63
2023/01/23 10:30:01;;;;;;;14.40;7.90;;;3.60;99.90;;;;;;5056426;28;20506;-63
2023/01/23 10:32:29;;;;;;;15.88;7.63;;;3.60;99.90;;;;;;5057149;28;20051;-63
2023/01/23 10:35:17;;;;;;;13.32;6.78;;;;;;;;;;5058471;28;20047;-63
2023/01/23 10:37:47;;;;;;;12.98;6.80;;;;;;;;;;5062028;28;20115;-63
2023/01/23 10:40:15;;;;;;;11.23;6.88;;;;;;;;;;5062320;28;20037;-63
2023/01/23 10:42:41;;;;;;;12.60;6.55;;;3.90;99.90;;;;;;5060993;28;20406;-63
2023/01/23 10:45:20;;;;;;;10.40;7.55;;;3.80;99.90;;;;;;5060611;28;20048;-63
2023/01/23 10:47:47;;;;;;;10.88;7.10;;;;;;;;;;5062412;28;20047;-63
2023/01/23 10:50:14;;;;;;;13.15;7.85;;;;;;;;;;5062202;28;20037;-63
2023/01/23 10:52:42;;;;;;;13.15;8.02;;;3.90;99.90;;;;;;5060902;28;20037;-63
2023/01/23 10:55:25;;;;;;;11.38;7.38;;;;;;;;;;5057682;28;20036;-63
2023/01/23 10:57:57;;;;;;;9.27;7.57;;;;;;;;;;5053945;28;20501;-63
2023/01/23 11:00:26;;;;;;;13.95;8.65;;;3.80;99.90;;;;;;5057883;28;20410;-63
2023/01/23 11:02:51;;;;;;;11.52;7.68;;;3.90;99.90;;;;;;5052336;28;20099;-63
2023/01/23 11:05:42;;;;;;;13.70;7.68;;;3.90;99.90;;;;;;5051522;28;20131;-63
2023/01/23 11:08:28;;;;;;;9.57;6.55;;;;;;;;;;5051572;28;20059;-63
2023/01/23 11:11:10;;;;;;;10.07;7.53;;;;;;;;;;5036913;28;20110;-63
2023/01/23 11:13:36;;;;;;;13.63;7.57;;;4.00;99.90;;;;;;5066158;28;20041;-63
2023/01/23 11:16:04;;;;;;;10.48;6.10;;;4.00;99.90;;;;;;5071037;28;20603;-63
2023/01/23 11:18:41;;;;;;;9.10;6.95;;;3.90;99.90;;;;;;5071212;28;20037;-63
2023/01/23 11:21:19;;;;;;;9.82;6.40;;;;;;;;;;5050479;28;20049;-63
2023/01/23 11:23:45;;;;;;;11.93;7.10;;;;;;;;;;5047813;28;20045;-63
2023/01/23 11:26:30;;;;;;;11.93;6.80;;;;;;;;;;5049897;28;20518;-63
2023/01/23 11:28:56;;;;;;;10.48;6.65;;;4.10;99.90;;;;;;5061841;28;20047;-63
2023/01/23 11:31:25;;;;;;;9.77;6.03;;;;;;;;;;5061430;28;20029;-63
2023/01/23 11:34:12;;;;;;;11.27;6.55;;;4.20;99.90;;;;;;5048752;28;20102;-63
2023/01/23 11:37:11;;;;;;;9.88;6.82;;;4.10;99.90;;;;;;5063750;28;20131;-63
2023/01/23 11:39:41;;;;;;;7.95;5.63;;;;;;;;;;5061199;28;20159;-63
2023/01/23 11:42:11;;;;;;;11.10;6.95;;;;;;;;;;5060849;28;20048;-63
2023/01/23 11:44:38;;;;;;;11.43;6.65;;;;;;;;;;5058295;28;20209;-63
2023/01/23 11:47:04;;;;;;;11.00;7.72;;;;;;;;;;5048436;28;20052;-63
2023/01/23 11:49:59;;;;;;;9.70;5.43;;;4.30;99.90;;;;;;5059078;28;20033;-63
2023/01/23 11:52:36;;;;;;;9.18;5.85;;;;;;;;;;4996697;28;20050;-63
2023/01/23 11:55:17;;;;;;;8.48;5.80;;;4.10;99.90;;;;;;5051045;28;20506;-63
2023/01/23 11:58:13;;;;;;;8.40;5.72;;;4.40;99.90;;;;;;5060688;28;20037;-63
2023/01/23 12:00:56;;;;;;;9.68;6.00;;;4.20;99.90;;;;;;5060791;28;20095;-63
2023/01/23 12:03:41;;;;;;;7.35;5.90;;;;;;;;;;5048615;28;20072;-63
2023/01/23 12:06:31;;;;;;;8.45;5.68;;;4.10;99.90;;;;;;5061919;28;20055;-63
2023/01/23 12:09:17;;;;;;;7.85;5.13;;;4.20;99.90;;;;;;5051951;28;20055;-63
2023/01/23 12:11:43;;;;;;;7.25;5.05;;;;;;;;;;5069705;28;20032;-63
2023/01/23 12:14:14;;;;;;;8.68;5.47;;;;;;;;;;5069808;28;20490;-63
2023/01/23 12:16:53;;;;;;;9.75;5.63;;;4.30;99.90;;;;;;5052056;28;20094;-63
2023/01/23 12:19:26;;;;;;;7.82;6.00;;;;;;;;;;5051854;28;20084;-63
2023/01/23 12:22:21;;;;;;;9.27;5.90;;;4.50;99.90;;;;;;5069828;28;20044;-63
2023/01/23 12:24:47;;;;;;;7.93;5.53;;;;;;;;;;5035436;28;20052;-63
2023/01/23 12:27:33;;;;;;;8.25;6.22;;;;;;;;;;5051782;28;20634;-63
2023/01/23 12:30:40;;;;;;;9.50;6.18;;;4.40;99.90;;;;;;5051379;28;20151;-63
2023/01/23 12:33:08;;;;;;;9.50;4.60;;;;;;;;;;5060514;28;20037;-63
2023/01/23 12:35:52;;;;;;;5.88;4.43;;;;;;;;;;5059411;28;20401;-63
2023/01/23 12:38:33;;;;;;;8.48;4.68;;;;;;;;;;5059882;28;20458;-63
2023/01/23 12:41:02;;;;;;;6.93;4.80;;;;;;;;;;5047232;28;20048;-63
2023/01/23 12:43:28;;;;;;;8.38;5.43;;;;;;;;;;5049675;28;20417;-63
2023/01/23 12:46:04;;;;;;;8.52;5.70;;;4.50;99.90;;;;;;5058176;28;20494;-63
2023/01/23 12:48:34;;;;;;;8.57;5.60;;;;;;;;;;5059732;28;20124;-63
2023/01/23 12:51:07;;;;;;;7.80;5.55;;;4.50;99.90;;;;;;5058775;28;20055;-63
2023/01/23 12:53:36;;;;;;;7.75;5.72;;;;;;;;;;5059649;28;20036;-63
2023/01/23 12:56:23;;;;;;;7.63;5.70;;;;;;;;;;5059326;28;20071;-63
2023/01/23 12:59:03;;;;;;;7.07;5.05;;;4.60;99.90;;;;;;5046684;28;20517;-63
2023/01/23 13:01:54;;;;;;;9.15;5.57;;;4.20;99.90;;;;;;5047919;28;20045;-63
2023/01/23 13:04:26;;;;;;;8.45;5.88;;;;;;;;;;5048940;28;20053;-63
2023/01/23 13:06:52;;;;;;;10.63;5.68;;;;;;;;;;5049041;28;20043;-63
2023/01/23 13:09:34;;;;;;;8.27;6.05;;;4.30;99.90;;;;;;5047575;28;20049;-63
2023/01/23 13:12:21;;;;;;;7.93;6.38;;;4.50;99.90;;;;;;5048664;28;20049;-63
2023/01/23 13:14:52;;;;;;;7.95;6.18;;;;;;;;;;5056233;28;20059;-63
2023/01/23 13:17:34;;;;;;;6.60;5.40;;;4.20;99.90;;;;;;5059253;28;20045;-63
2023/01/23 13:23:18;;;;;;;7.93;5.80;;;4.30;99.90;;;;;;5058938;28;20040;-63
2023/01/23 13:25:45;;;;;;;8.10;5.70;;;;;;;;;;5059284;28;20028;-63
2023/01/23 13:28:30;;;;;;;10.20;6.35;;;;;;;;;;5048515;28;20037;-63
2023/01/23 13:31:03;;;;;;;9.30;7.15;;;;;;;;;;5046616;28;20118;-63
2023/01/23 13:33:29;;;;;;;8.98;6.40;;;;;;;;;;5057871;28;20037;-63
2023/01/23 13:35:58;;;;;;;10.77;6.72;;;;;;;;;;5058698;28;20036;-63
2023/01/23 13:38:25;;;;;;;10.10;7.03;;;4.30;99.90;;;;;;5046225;28;20048;-63
2023/01/23 13:44:03;;;;;;;9.65;5.78;;;;;;;;;;5025076;28;20487;-63
2023/01/23 13:46:39;;;;;;;8.48;6.82;;;4.20;99.90;;;;;;5059027;28;20097;-63
2023/01/23 13:56:37;;;;;;;10.02;6.50;;;;;;;;;;5058650;28;20040;-63
2023/01/23 13:57:38;;;;;;;9.13;5.90;;;;;;;;;;5060623;28;20049;-63
2023/01/23 14:00:06;;;;;;;9.05;6.03;;;;;;;;;;5048896;28;20041;-63
2023/01/23 14:05:29;;;;;;;12.70;7.03;;;4.40;99.90;;;;;;5030008;28;20506;-66
2023/01/23 14:08:04;;;;;;;8.43;6.30;;;4.30;99.90;;;;;;5030339;28;20033;-66
2023/01/23 14:10:34;;;;;;;11.30;7.38;;;4.10;99.90;;;;;;5030175;28;20036;-66
2023/01/23 14:13:03;;;;;;;10.23;6.82;;;4.40;99.90;;;;;;5034309;28;20501;-66
2023/01/23 14:18:14;;;;;;;8.55;6.20;;;;;;;;;;5034424;28;20045;-66
2023/01/23 14:20:40;;;;;;;9.30;6.93;;;4.30;99.90;;;;;;5051933;28;20509;-66
2023/01/23 14:23:16;;;;;;;11.13;6.88;;;;;;;;;;5052189;28;20055;-67
2023/01/23 14:25:42;;;;;;;9.07;6.28;;;;;;;;;;5034328;28;20044;-66
2023/01/23 14:28:15;;;;;;;11.60;7.18;;;4.20;99.90;;;;;;5033894;28;20049;-66
2023/01/23 14:30:41;;;;;;;9.93;6.53;;;;;;;;;;5034078;28;20056;-66
2023/01/23 14:33:11;;;;;;;9.68;6.38;;;;;;;;;;5051916;28;20044;-66
2023/01/23 14:35:39;;;;;;;8.95;5.95;;;;;;;;;;5053840;28;20091;-66
2023/01/23 14:38:06;;;;;;;12.38;7.32;;;;;;;;;;5053765;28;20462;-65
2023/01/23 14:40:32;;;;;;;10.10;7.78;;;4.30;99.90;;;;;;5071670;28;20117;-66